sensor_id;sensor_type;location;lat;lon;timestamp;P1;durP1;ratioP1;P2;durP2;ratioP2
67051;SDS011;53957;47.222;18.670;2022-09-27T00:02:28;12.25;;;9.45;;
67051;SDS011;53957;47.222;18.670;2022-09-27T00:05:31;14.48;;;9.85;;
67051;SDS011;53957;47.222;18.670;2022-09-27T00:08:34;11.30;;;9.30;;
67051;SDS011;53957;47.222;18.670;2022-09-27T00:11:39;12.10;;;9.63;;
67051;SDS011;53957;47.222;18.670;2022-09-27T00:14:45;14.05;;;9.60;;
67051;SDS011;53957;47.222;18.670;2022-09-27T00:17:48;9.75;;;7.97;;
67051;SDS011;53957;47.222;18.670;2022-09-27T00:20:53;11.55;;;9.65;;
67051;SDS011;53957;47.222;18.670;2022-09-27T00:23:56;10.50;;;8.57;;
67051;SDS011;53957;47.222;18.670;2022-09-27T00:27:00;12.63;;;9.25;;
67051;SDS011;53957;47.222;18.670;2022-09-27T00:30:03;11.12;;;8.98;;
67051;SDS011;53957;47.222;18.670;2022-09-27T00:33:06;9.95;;;8.63;;
67051;SDS011;53957;47.222;18.670;2022-09-27T00:36:09;11.63;;;8.40;;
67051;SDS011;53957;47.222;18.670;2022-09-27T00:39:11;10.90;;;9.23;;
67051;SDS011;53957;47.222;18.670;2022-09-27T00:42:14;9.98;;;8.90;;
67051;SDS011;53957;47.222;18.670;2022-09-27T00:45:17;10.70;;;8.43;;
67051;SDS011;53957;47.222;18.670;2022-09-27T00:48:21;12.52;;;9.50;;
67051;SDS011;53957;47.222;18.670;2022-09-27T00:51:29;10.57;;;8.10;;
67051;SDS011;53957;47.222;18.670;2022-09-27T00:54:35;10.75;;;9.23;;
67051;SDS011;53957;47.222;18.670;2022-09-27T00:57:42;10.57;;;8.07;;
67051;SDS011;53957;47.222;18.670;2022-09-27T01:00:47;9.35;;;8.27;;
67051;SDS011;53957;47.222;18.670;2022-09-27T01:04:00;11.32;;;8.57;;
67051;SDS011;53957;47.222;18.670;2022-09-27T01:07:07;15.48;;;8.35;;
67051;SDS011;53957;47.222;18.670;2022-09-27T01:10:10;10.73;;;8.35;;
67051;SDS011;53957;47.222;18.670;2022-09-27T01:16:18;9.80;;;7.72;;
67051;SDS011;53957;47.222;18.670;2022-09-27T01:19:56;12.43;;;8.02;;
67051;SDS011;53957;47.222;18.670;2022-09-27T01:30:33;10.75;;;7.50;;
67051;SDS011;53957;47.222;18.670;2022-09-27T01:36:39;9.77;;;7.12;;
67051;SDS011;53957;47.222;18.670;2022-09-27T01:43:21;8.38;;;7.30;;
67051;SDS011;53957;47.222;18.670;2022-09-27T01:46:35;11.60;;;7.90;;
67051;SDS011;53957;47.222;18.670;2022-09-27T01:52:56;12.77;;;7.95;;
67051;SDS011;53957;47.222;18.670;2022-09-27T01:56:06;10.45;;;7.95;;
67051;SDS011;53957;47.222;18.670;2022-09-27T01:59:16;18.73;;;9.82;;
67051;SDS011;53957;47.222;18.670;2022-09-27T02:02:23;14.00;;;8.25;;
67051;SDS011;53957;47.222;18.670;2022-09-27T02:05:41;24.30;;;8.30;;
67051;SDS011;53957;47.222;18.670;2022-09-27T02:12:10;17.10;;;7.20;;
67051;SDS011;53957;47.222;18.670;2022-09-27T02:15:17;8.48;;;7.07;;
67051;SDS011;53957;47.222;18.670;2022-09-27T02:18:31;13.13;;;7.10;;
67051;SDS011;53957;47.222;18.670;2022-09-27T02:28:28;6.75;;;5.82;;
67051;SDS011;53957;47.222;18.670;2022-09-27T02:31:36;8.73;;;5.07;;
67051;SDS011;53957;47.222;18.670;2022-09-27T02:34:40;5.25;;;4.75;;
67051;SDS011;53957;47.222;18.670;2022-09-27T02:37:45;5.10;;;4.60;;
67051;SDS011;53957;47.222;18.670;2022-09-27T02:40:48;28.25;;;5.25;;
67051;SDS011;53957;47.222;18.670;2022-09-27T02:43:53;14.52;;;6.07;;
67051;SDS011;53957;47.222;18.670;2022-09-27T02:50:15;6.97;;;6.07;;
67051;SDS011;53957;47.222;18.670;2022-09-27T03:01:01;13.18;;;5.78;;
67051;SDS011;53957;47.222;18.670;2022-09-27T03:07:51;5.80;;;5.25;;
67051;SDS011;53957;47.222;18.670;2022-09-27T03:10:54;5.68;;;5.18;;
67051;SDS011;53957;47.222;18.670;2022-09-27T03:13:57;8.07;;;5.50;;
67051;SDS011;53957;47.222;18.670;2022-09-27T03:17:11;8.38;;;5.78;;
67051;SDS011;53957;47.222;18.670;2022-09-27T03:20:18;6.37;;;5.75;;
67051;SDS011;53957;47.222;18.670;2022-09-27T03:23:21;22.40;;;5.55;;
67051;SDS011;53957;47.222;18.670;2022-09-27T05:54:20;14.43;;;11.63;;
67051;SDS011;53957;47.222;18.670;2022-09-27T05:57:23;17.40;;;8.18;;
67051;SDS011;53957;47.222;18.670;2022-09-27T06:00:27;11.73;;;6.93;;
67051;SDS011;53957;47.222;18.670;2022-09-27T06:03:31;9.05;;;7.10;;
67051;SDS011;53957;47.222;18.670;2022-09-27T06:06:38;9.85;;;7.85;;
67051;SDS011;53957;47.222;18.670;2022-09-27T06:09:41;11.35;;;7.57;;
67051;SDS011;53957;47.222;18.670;2022-09-27T06:12:46;15.05;;;7.87;;
67051;SDS011;53957;47.222;18.670;2022-09-27T06:15:51;12.20;;;7.57;;
67051;SDS011;53957;47.222;18.670;2022-09-27T06:18:55;9.95;;;7.65;;
67051;SDS011;53957;47.222;18.670;2022-09-27T06:21:59;8.48;;;7.45;;
67051;SDS011;53957;47.222;18.670;2022-09-27T06:25:03;25.00;;;8.95;;
67051;SDS011;53957;47.222;18.670;2022-09-27T06:28:08;18.60;;;7.90;;
67051;SDS011;53957;47.222;18.670;2022-09-27T06:31:12;12.85;;;8.15;;
67051;SDS011;53957;47.222;18.670;2022-09-27T06:34:20;21.77;;;7.47;;
67051;SDS011;53957;47.222;18.670;2022-09-27T06:37:24;16.35;;;7.78;;
67051;SDS011;53957;47.222;18.670;2022-09-27T06:40:28;10.73;;;7.53;;
67051;SDS011;53957;47.222;18.670;2022-09-27T06:43:32;14.02;;;8.35;;
67051;SDS011;53957;47.222;18.670;2022-09-27T06:46:36;15.70;;;8.68;;
67051;SDS011;53957;47.222;18.670;2022-09-27T06:49:40;13.15;;;8.85;;
67051;SDS011;53957;47.222;18.670;2022-09-27T06:52:47;16.58;;;9.82;;
67051;SDS011;53957;47.222;18.670;2022-09-27T06:55:58;20.98;;;10.77;;
67051;SDS011;53957;47.222;18.670;2022-09-27T06:59:04;24.67;;;11.32;;
67051;SDS011;53957;47.222;18.670;2022-09-27T07:02:34;18.42;;;10.60;;
67051;SDS011;53957;47.222;18.670;2022-09-27T07:05:38;19.87;;;11.20;;
67051;SDS011;53957;47.222;18.670;2022-09-27T07:08:50;22.08;;;10.90;;
67051;SDS011;53957;47.222;18.670;2022-09-27T07:11:54;12.48;;;9.10;;
67051;SDS011;53957;47.222;18.670;2022-09-27T07:14:57;13.68;;;10.27;;
67051;SDS011;53957;47.222;18.670;2022-09-27T07:18:01;12.48;;;9.15;;
67051;SDS011;53957;47.222;18.670;2022-09-27T07:21:06;22.40;;;10.90;;
67051;SDS011;53957;47.222;18.670;2022-09-27T07:24:11;13.25;;;9.57;;
67051;SDS011;53957;47.222;18.670;2022-09-27T07:27:14;17.73;;;11.25;;
67051;SDS011;53957;47.222;18.670;2022-09-27T07:30:18;17.37;;;10.48;;
67051;SDS011;53957;47.222;18.670;2022-09-27T07:33:21;19.00;;;12.27;;
67051;SDS011;53957;47.222;18.670;2022-09-27T07:36:24;18.35;;;11.63;;
67051;SDS011;53957;47.222;18.670;2022-09-27T07:39:27;15.13;;;11.82;;
67051;SDS011;53957;47.222;18.670;2022-09-27T07:42:31;16.20;;;12.07;;
67051;SDS011;53957;47.222;18.670;2022-09-27T07:45:35;21.20;;;13.73;;
67051;SDS011;53957;47.222;18.670;2022-09-27T07:48:38;18.05;;;12.88;;
67051;SDS011;53957;47.222;18.670;2022-09-27T07:51:42;17.75;;;13.00;;
67051;SDS011;53957;47.222;18.670;2022-09-27T07:54:45;23.58;;;13.32;;
67051;SDS011;53957;47.222;18.670;2022-09-27T07:57:49;20.20;;;13.57;;
67051;SDS011;53957;47.222;18.670;2022-09-27T08:00:52;21.33;;;12.10;;
67051;SDS011;53957;47.222;18.670;2022-09-27T08:03:56;21.55;;;13.32;;
67051;SDS011;53957;47.222;18.670;2022-09-27T08:07:00;23.33;;;14.43;;
67051;SDS011;53957;47.222;18.670;2022-09-27T08:10:04;23.62;;;14.40;;
67051;SDS011;53957;47.222;18.670;2022-09-27T08:13:11;27.35;;;15.70;;
67051;SDS011;53957;47.222;18.670;2022-09-27T08:16:14;25.48;;;15.95;;
67051;SDS011;53957;47.222;18.670;2022-09-27T08:19:19;20.35;;;14.32;;
67051;SDS011;53957;47.222;18.670;2022-09-27T08:22:22;25.73;;;16.70;;
67051;SDS011;53957;47.222;18.670;2022-09-27T08:25:27;24.25;;;13.98;;
67051;SDS011;53957;47.222;18.670;2022-09-27T08:28:33;18.98;;;11.77;;
67051;SDS011;53957;47.222;18.670;2022-09-27T08:31:37;22.25;;;13.65;;
67051;SDS011;53957;47.222;18.670;2022-09-27T08:34:41;15.60;;;10.65;;
67051;SDS011;53957;47.222;18.670;2022-09-27T08:37:51;20.77;;;11.50;;
67051;SDS011;53957;47.222;18.670;2022-09-27T08:40:56;27.35;;;13.93;;
67051;SDS011;53957;47.222;18.670;2022-09-27T08:44:06;28.50;;;13.95;;
67051;SDS011;53957;47.222;18.670;2022-09-27T08:47:15;30.92;;;15.38;;
67051;SDS011;53957;47.222;18.670;2022-09-27T08:53:31;33.60;;;15.47;;
67051;SDS011;53957;47.222;18.670;2022-09-27T08:59:45;29.40;;;14.40;;
67051;SDS011;53957;47.222;18.670;2022-09-27T09:02:51;36.20;;;13.70;;
67051;SDS011;53957;47.222;18.670;2022-09-27T09:12:52;39.13;;;14.43;;
67051;SDS011;53957;47.222;18.670;2022-09-27T09:39:32;23.05;;;12.13;;
67051;SDS011;53957;47.222;18.670;2022-09-27T09:42:37;21.37;;;13.38;;
67051;SDS011;53957;47.222;18.670;2022-09-27T09:45:45;22.17;;;12.23;;
67051;SDS011;53957;47.222;18.670;2022-09-27T09:49:10;20.73;;;12.37;;
67051;SDS011;53957;47.222;18.670;2022-09-27T09:52:21;25.42;;;13.13;;
67051;SDS011;53957;47.222;18.670;2022-09-27T09:55:34;21.52;;;13.50;;
67051;SDS011;53957;47.222;18.670;2022-09-27T10:01:54;22.77;;;12.75;;
67051;SDS011;53957;47.222;18.670;2022-09-27T10:05:04;20.08;;;12.63;;
67051;SDS011;53957;47.222;18.670;2022-09-27T10:08:12;20.45;;;12.73;;
67051;SDS011;53957;47.222;18.670;2022-09-27T10:11:24;21.55;;;13.23;;
67051;SDS011;53957;47.222;18.670;2022-09-27T10:14:29;22.58;;;13.65;;
67051;SDS011;53957;47.222;18.670;2022-09-27T10:17:38;20.50;;;12.98;;
67051;SDS011;53957;47.222;18.670;2022-09-27T10:20:46;21.92;;;12.95;;
67051;SDS011;53957;47.222;18.670;2022-09-27T10:27:24;22.30;;;12.90;;
67051;SDS011;53957;47.222;18.670;2022-09-27T10:30:32;24.87;;;14.57;;
67051;SDS011;53957;47.222;18.670;2022-09-27T10:33:37;21.05;;;12.32;;
67051;SDS011;53957;47.222;18.670;2022-09-27T10:40:23;26.50;;;16.80;;
67051;SDS011;53957;47.222;18.670;2022-09-27T10:43:35;29.05;;;15.98;;
67051;SDS011;53957;47.222;18.670;2022-09-27T10:46:41;26.95;;;15.55;;
67051;SDS011;53957;47.222;18.670;2022-09-27T10:49:50;27.95;;;16.23;;
67051;SDS011;53957;47.222;18.670;2022-09-27T10:56:39;24.27;;;16.48;;
67051;SDS011;53957;47.222;18.670;2022-09-27T10:59:42;25.05;;;15.63;;
67051;SDS011;53957;47.222;18.670;2022-09-27T11:02:53;23.58;;;15.07;;
67051;SDS011;53957;47.222;18.670;2022-09-27T11:05:59;16.27;;;12.43;;
67051;SDS011;53957;47.222;18.670;2022-09-27T11:09:24;16.60;;;12.48;;
67051;SDS011;53957;47.222;18.670;2022-09-27T11:12:28;17.23;;;12.60;;
67051;SDS011;53957;47.222;18.670;2022-09-27T11:15:36;17.58;;;12.60;;
67051;SDS011;53957;47.222;18.670;2022-09-27T11:25:30;19.87;;;13.93;;
67051;SDS011;53957;47.222;18.670;2022-09-27T11:32:15;19.65;;;12.30;;
67051;SDS011;53957;47.222;18.670;2022-09-27T11:49:24;17.42;;;9.82;;
67051;SDS011;53957;47.222;18.670;2022-09-27T12:09:13;6.50;;;5.65;;
67051;SDS011;53957;47.222;18.670;2022-09-27T12:12:25;7.82;;;5.40;;
67051;SDS011;53957;47.222;18.670;2022-09-27T12:15:33;6.15;;;4.90;;
67051;SDS011;53957;47.222;18.670;2022-09-27T12:18:43;6.53;;;5.35;;
67051;SDS011;53957;47.222;18.670;2022-09-27T12:22:13;5.68;;;5.10;;
67051;SDS011;53957;47.222;18.670;2022-09-27T12:25:36;7.40;;;5.22;;
67051;SDS011;53957;47.222;18.670;2022-09-27T12:28:58;4.85;;;4.45;;
67051;SDS011;53957;47.222;18.670;2022-09-27T12:32:25;6.45;;;4.80;;
67051;SDS011;53957;47.222;18.670;2022-09-27T12:35:38;5.60;;;4.12;;
67051;SDS011;53957;47.222;18.670;2022-09-27T12:38:51;4.90;;;4.18;;
67051;SDS011;53957;47.222;18.670;2022-09-27T12:42:05;5.03;;;3.95;;
67051;SDS011;53957;47.222;18.670;2022-09-27T12:45:16;4.97;;;3.70;;
67051;SDS011;53957;47.222;18.670;2022-09-27T12:48:42;4.45;;;4.05;;
67051;SDS011;53957;47.222;18.670;2022-09-27T12:52:04;4.70;;;3.53;;
67051;SDS011;53957;47.222;18.670;2022-09-27T12:55:23;5.32;;;3.33;;
67051;SDS011;53957;47.222;18.670;2022-09-27T13:06:40;3.97;;;3.50;;
67051;SDS011;53957;47.222;18.670;2022-09-27T13:13:09;4.43;;;3.53;;
67051;SDS011;53957;47.222;18.670;2022-09-27T13:16:15;3.70;;;3.05;;
67051;SDS011;53957;47.222;18.670;2022-09-27T13:22:37;4.53;;;3.28;;
67051;SDS011;53957;47.222;18.670;2022-09-27T13:29:03;6.82;;;4.05;;
67051;SDS011;53957;47.222;18.670;2022-09-27T13:32:22;1.70;;;1.60;;
67051;SDS011;53957;47.222;18.670;2022-09-27T13:35:29;5.82;;;1.33;;
67051;SDS011;53957;47.222;18.670;2022-09-27T13:38:32;0.80;;;0.80;;
67051;SDS011;53957;47.222;18.670;2022-09-27T13:42:20;0.77;;;0.70;;
67051;SDS011;53957;47.222;18.670;2022-09-27T13:52:28;0.77;;;0.77;;
67051;SDS011;53957;47.222;18.670;2022-09-27T13:59:00;1.30;;;0.75;;
67051;SDS011;53957;47.222;18.670;2022-09-27T14:02:12;0.65;;;0.65;;
67051;SDS011;53957;47.222;18.670;2022-09-27T14:05:23;0.77;;;0.68;;
67051;SDS011;53957;47.222;18.670;2022-09-27T14:08:37;1.35;;;0.80;;
67051;SDS011;53957;47.222;18.670;2022-09-27T14:11:49;1.33;;;1.23;;
67051;SDS011;53957;47.222;18.670;2022-09-27T14:14:56;3.05;;;1.05;;
67051;SDS011;53957;47.222;18.670;2022-09-27T14:18:01;1.27;;;1.00;;
67051;SDS011;53957;47.222;18.670;2022-09-27T14:21:20;2.37;;;1.20;;
67051;SDS011;53957;47.222;18.670;2022-09-27T14:24:29;0.90;;;0.90;;
67051;SDS011;53957;47.222;18.670;2022-09-27T14:27:35;1.23;;;1.00;;
67051;SDS011;53957;47.222;18.670;2022-09-27T14:30:40;0.90;;;0.90;;
67051;SDS011;53957;47.222;18.670;2022-09-27T14:33:46;1.30;;;1.30;;
67051;SDS011;53957;47.222;18.670;2022-09-27T14:36:49;2.87;;;0.90;;
67051;SDS011;53957;47.222;18.670;2022-09-27T14:40:17;0.90;;;0.90;;
67051;SDS011;53957;47.222;18.670;2022-09-27T14:43:22;0.90;;;0.90;;
67051;SDS011;53957;47.222;18.670;2022-09-27T14:46:29;0.85;;;0.85;;
67051;SDS011;53957;47.222;18.670;2022-09-27T14:49:34;2.08;;;0.80;;
67051;SDS011;53957;47.222;18.670;2022-09-27T14:52:37;0.80;;;0.80;;
67051;SDS011;53957;47.222;18.670;2022-09-27T14:55:42;0.90;;;0.90;;
67051;SDS011;53957;47.222;18.670;2022-09-27T14:58:47;0.90;;;0.90;;
67051;SDS011;53957;47.222;18.670;2022-09-27T15:01:54;0.80;;;0.80;;
67051;SDS011;53957;47.222;18.670;2022-09-27T15:04:57;1.05;;;1.05;;
67051;SDS011;53957;47.222;18.670;2022-09-27T15:08:04;0.93;;;0.90;;
67051;SDS011;53957;47.222;18.670;2022-09-27T15:11:07;1.00;;;0.95;;
67051;SDS011;53957;47.222;18.670;2022-09-27T15:14:12;1.90;;;0.88;;
67051;SDS011;53957;47.222;18.670;2022-09-27T15:17:19;0.90;;;0.90;;
67051;SDS011;53957;47.222;18.670;2022-09-27T15:20:25;1.27;;;1.00;;
67051;SDS011;53957;47.222;18.670;2022-09-27T15:23:36;0.70;;;0.70;;
67051;SDS011;53957;47.222;18.670;2022-09-27T15:26:44;0.90;;;0.90;;
67051;SDS011;53957;47.222;18.670;2022-09-27T15:29:52;0.93;;;0.93;;
67051;SDS011;53957;47.222;18.670;2022-09-27T15:32:58;1.30;;;1.20;;
67051;SDS011;53957;47.222;18.670;2022-09-27T15:36:05;2.67;;;1.00;;
67051;SDS011;53957;47.222;18.670;2022-09-27T15:39:11;1.00;;;1.00;;
67051;SDS011;53957;47.222;18.670;2022-09-27T15:42:19;0.90;;;0.90;;
67051;SDS011;53957;47.222;18.670;2022-09-27T15:45:29;0.90;;;0.90;;
67051;SDS011;53957;47.222;18.670;2022-09-27T15:48:35;3.58;;;0.90;;
67051;SDS011;53957;47.222;18.670;2022-09-27T15:51:40;0.70;;;0.70;;
67051;SDS011;53957;47.222;18.670;2022-09-27T15:54:44;0.90;;;0.90;;
67051;SDS011;53957;47.222;18.670;2022-09-27T15:57:48;0.80;;;0.80;;
67051;SDS011;53957;47.222;18.670;2022-09-27T16:00:56;0.88;;;0.88;;
67051;SDS011;53957;47.222;18.670;2022-09-27T16:04:07;1.17;;;1.08;;
67051;SDS011;53957;47.222;18.670;2022-09-27T16:07:10;1.98;;;1.30;;
67051;SDS011;53957;47.222;18.670;2022-09-27T16:10:20;1.08;;;1.08;;
67051;SDS011;53957;47.222;18.670;2022-09-27T16:13:25;1.05;;;1.00;;
67051;SDS011;53957;47.222;18.670;2022-09-27T16:16:34;4.07;;;1.15;;
67051;SDS011;53957;47.222;18.670;2022-09-27T16:19:37;1.37;;;1.27;;
67051;SDS011;53957;47.222;18.670;2022-09-27T16:22:41;1.27;;;1.10;;
67051;SDS011;53957;47.222;18.670;2022-09-27T16:25:44;2.40;;;0.98;;
67051;SDS011;53957;47.222;18.670;2022-09-27T16:28:47;1.00;;;1.00;;
67051;SDS011;53957;47.222;18.670;2022-09-27T16:31:50;0.98;;;0.98;;
67051;SDS011;53957;47.222;18.670;2022-09-27T16:34:55;1.00;;;1.00;;
67051;SDS011;53957;47.222;18.670;2022-09-27T16:37:58;2.28;;;1.50;;
67051;SDS011;53957;47.222;18.670;2022-09-27T16:41:01;3.55;;;1.80;;
67051;SDS011;53957;47.222;18.670;2022-09-27T16:44:05;3.85;;;2.42;;
67051;SDS011;53957;47.222;18.670;2022-09-27T16:47:12;4.82;;;2.80;;
67051;SDS011;53957;47.222;18.670;2022-09-27T16:50:15;4.12;;;3.40;;
67051;SDS011;53957;47.222;18.670;2022-09-27T16:53:37;3.12;;;2.67;;
67051;SDS011;53957;47.222;18.670;2022-09-27T16:56:40;4.53;;;3.42;;
67051;SDS011;53957;47.222;18.670;2022-09-27T16:59:46;3.97;;;2.47;;
67051;SDS011;53957;47.222;18.670;2022-09-27T17:02:49;2.72;;;2.30;;
67051;SDS011;53957;47.222;18.670;2022-09-27T17:05:59;2.53;;;2.20;;
67051;SDS011;53957;47.222;18.670;2022-09-27T17:09:03;2.30;;;2.10;;
67051;SDS011;53957;47.222;18.670;2022-09-27T17:12:06;1.95;;;1.83;;
67051;SDS011;53957;47.222;18.670;2022-09-27T17:15:13;1.75;;;1.65;;
67051;SDS011;53957;47.222;18.670;2022-09-27T17:18:17;2.42;;;1.77;;
67051;SDS011;53957;47.222;18.670;2022-09-27T17:21:20;5.55;;;2.03;;
67051;SDS011;53957;47.222;18.670;2022-09-27T17:24:23;2.95;;;2.75;;
67051;SDS011;53957;47.222;18.670;2022-09-27T17:27:26;1.95;;;1.80;;
67051;SDS011;53957;47.222;18.670;2022-09-27T17:30:30;3.65;;;2.22;;
67051;SDS011;53957;47.222;18.670;2022-09-27T17:33:33;2.80;;;1.83;;
67051;SDS011;53957;47.222;18.670;2022-09-27T17:36:43;2.20;;;2.00;;
67051;SDS011;53957;47.222;18.670;2022-09-27T17:39:49;3.17;;;1.70;;
67051;SDS011;53957;47.222;18.670;2022-09-27T17:42:52;4.85;;;1.98;;
67051;SDS011;53957;47.222;18.670;2022-09-27T17:45:55;2.55;;;2.35;;
67051;SDS011;53957;47.222;18.670;2022-09-27T17:48:58;3.22;;;2.92;;
67051;SDS011;53957;47.222;18.670;2022-09-27T17:52:20;4.55;;;3.78;;
67051;SDS011;53957;47.222;18.670;2022-09-27T17:55:24;4.12;;;3.72;;
67051;SDS011;53957;47.222;18.670;2022-09-27T17:58:26;5.45;;;3.97;;
67051;SDS011;53957;47.222;18.670;2022-09-27T18:01:32;4.62;;;4.12;;
67051;SDS011;53957;47.222;18.670;2022-09-27T18:04:35;4.12;;;3.12;;
67051;SDS011;53957;47.222;18.670;2022-09-27T18:07:38;4.25;;;2.60;;
67051;SDS011;53957;47.222;18.670;2022-09-27T18:10:41;4.22;;;2.42;;
67051;SDS011;53957;47.222;18.670;2022-09-27T18:13:44;2.65;;;2.42;;
67051;SDS011;53957;47.222;18.670;2022-09-27T18:16:50;2.60;;;2.40;;
67051;SDS011;53957;47.222;18.670;2022-09-27T18:19:55;3.15;;;2.85;;
67051;SDS011;53957;47.222;18.670;2022-09-27T18:22:58;3.35;;;2.47;;
67051;SDS011;53957;47.222;18.670;2022-09-27T18:26:01;5.90;;;1.92;;
67051;SDS011;53957;47.222;18.670;2022-09-27T18:29:07;2.62;;;2.20;;
67051;SDS011;53957;47.222;18.670;2022-09-27T18:32:16;2.25;;;2.10;;
67051;SDS011;53957;47.222;18.670;2022-09-27T18:35:19;2.20;;;2.10;;
67051;SDS011;53957;47.222;18.670;2022-09-27T18:38:22;2.58;;;2.37;;
67051;SDS011;53957;47.222;18.670;2022-09-27T18:41:26;3.67;;;3.10;;
67051;SDS011;53957;47.222;18.670;2022-09-27T18:44:30;3.50;;;2.67;;
67051;SDS011;53957;47.222;18.670;2022-09-27T18:47:34;5.40;;;2.90;;
67051;SDS011;53957;47.222;18.670;2022-09-27T18:50:37;3.00;;;2.33;;
67051;SDS011;53957;47.222;18.670;2022-09-27T18:53:40;2.45;;;2.20;;
67051;SDS011;53957;47.222;18.670;2022-09-27T18:56:43;2.30;;;2.10;;
67051;SDS011;53957;47.222;18.670;2022-09-27T18:59:47;2.08;;;1.85;;
67051;SDS011;53957;47.222;18.670;2022-09-27T19:02:50;2.00;;;1.80;;
67051;SDS011;53957;47.222;18.670;2022-09-27T19:05:57;2.22;;;2.12;;
67051;SDS011;53957;47.222;18.670;2022-09-27T19:09:02;2.65;;;2.10;;
67051;SDS011;53957;47.222;18.670;2022-09-27T19:12:06;2.85;;;2.42;;
67051;SDS011;53957;47.222;18.670;2022-09-27T19:15:09;3.62;;;2.35;;
67051;SDS011;53957;47.222;18.670;2022-09-27T19:18:12;2.05;;;1.90;;
67051;SDS011;53957;47.222;18.670;2022-09-27T19:21:16;2.58;;;1.60;;
67051;SDS011;53957;47.222;18.670;2022-09-27T19:24:21;1.70;;;1.60;;
67051;SDS011;53957;47.222;18.670;2022-09-27T19:27:24;2.00;;;1.90;;
67051;SDS011;53957;47.222;18.670;2022-09-27T19:30:27;1.77;;;1.67;;
67051;SDS011;53957;47.222;18.670;2022-09-27T19:33:30;2.10;;;1.58;;
67051;SDS011;53957;47.222;18.670;2022-09-27T19:36:40;1.50;;;1.42;;
67051;SDS011;53957;47.222;18.670;2022-09-27T19:39:42;6.18;;;2.22;;
67051;SDS011;53957;47.222;18.670;2022-09-27T19:42:49;2.75;;;1.80;;
67051;SDS011;53957;47.222;18.670;2022-09-27T19:45:52;1.60;;;1.50;;
67051;SDS011;53957;47.222;18.670;2022-09-27T19:48:55;1.75;;;1.58;;
67051;SDS011;53957;47.222;18.670;2022-09-27T19:51:58;1.52;;;1.42;;
67051;SDS011;53957;47.222;18.670;2022-09-27T19:55:02;1.10;;;1.10;;
67051;SDS011;53957;47.222;18.670;2022-09-27T19:58:06;2.35;;;1.30;;
67051;SDS011;53957;47.222;18.670;2022-09-27T20:01:10;1.50;;;1.40;;
67051;SDS011;53957;47.222;18.670;2022-09-27T20:04:15;1.20;;;1.20;;
67051;SDS011;53957;47.222;18.670;2022-09-27T20:07:17;1.33;;;1.23;;
67051;SDS011;53957;47.222;18.670;2022-09-27T20:10:20;1.27;;;1.17;;
67051;SDS011;53957;47.222;18.670;2022-09-27T20:13:23;1.45;;;1.35;;
67051;SDS011;53957;47.222;18.670;2022-09-27T20:16:27;2.40;;;1.70;;
67051;SDS011;53957;47.222;18.670;2022-09-27T20:19:30;1.15;;;1.15;;
67051;SDS011;53957;47.222;18.670;2022-09-27T20:22:33;2.45;;;1.27;;
67051;SDS011;53957;47.222;18.670;2022-09-27T20:25:36;1.10;;;1.10;;
67051;SDS011;53957;47.222;18.670;2022-09-27T20:28:48;1.10;;;1.10;;
67051;SDS011;53957;47.222;18.670;2022-09-27T20:31:52;2.87;;;1.10;;
67051;SDS011;53957;47.222;18.670;2022-09-27T20:35:15;1.20;;;1.17;;
67051;SDS011;53957;47.222;18.670;2022-09-27T20:38:19;1.10;;;1.10;;
67051;SDS011;53957;47.222;18.670;2022-09-27T20:41:22;1.15;;;1.10;;
67051;SDS011;53957;47.222;18.670;2022-09-27T20:44:26;1.20;;;1.10;;
67051;SDS011;53957;47.222;18.670;2022-09-27T20:47:29;1.50;;;1.15;;
67051;SDS011;53957;47.222;18.670;2022-09-27T20:50:32;1.00;;;1.00;;
67051;SDS011;53957;47.222;18.670;2022-09-27T20:53:35;1.40;;;1.30;;
67051;SDS011;53957;47.222;18.670;2022-09-27T20:56:42;1.02;;;1.02;;
67051;SDS011;53957;47.222;18.670;2022-09-27T20:59:48;0.85;;;0.80;;
67051;SDS011;53957;47.222;18.670;2022-09-27T21:02:51;2.08;;;0.90;;
67051;SDS011;53957;47.222;18.670;2022-09-27T21:05:54;1.83;;;0.90;;
67051;SDS011;53957;47.222;18.670;2022-09-27T21:08:58;1.80;;;0.93;;
67051;SDS011;53957;47.222;18.670;2022-09-27T21:12:02;0.85;;;0.85;;
67051;SDS011;53957;47.222;18.670;2022-09-27T21:15:04;3.12;;;0.90;;
67051;SDS011;53957;47.222;18.670;2022-09-27T21:18:08;3.72;;;0.80;;
67051;SDS011;53957;47.222;18.670;2022-09-27T21:21:12;0.98;;;0.98;;
67051;SDS011;53957;47.222;18.670;2022-09-27T21:24:16;1.75;;;0.98;;
67051;SDS011;53957;47.222;18.670;2022-09-27T21:27:19;0.93;;;0.90;;
67051;SDS011;53957;47.222;18.670;2022-09-27T21:30:22;0.82;;;0.82;;
67051;SDS011;53957;47.222;18.670;2022-09-27T21:33:25;0.80;;;0.80;;
67051;SDS011;53957;47.222;18.670;2022-09-27T21:36:32;0.70;;;0.70;;
67051;SDS011;53957;47.222;18.670;2022-09-27T21:39:36;0.93;;;0.82;;
67051;SDS011;53957;47.222;18.670;2022-09-27T21:42:39;0.85;;;0.85;;
67051;SDS011;53957;47.222;18.670;2022-09-27T21:45:41;1.15;;;1.15;;
67051;SDS011;53957;47.222;18.670;2022-09-27T21:48:48;0.80;;;0.80;;
67051;SDS011;53957;47.222;18.670;2022-09-27T21:51:52;0.80;;;0.80;;
67051;SDS011;53957;47.222;18.670;2022-09-27T21:54:54;1.23;;;0.82;;
67051;SDS011;53957;47.222;18.670;2022-09-27T21:57:57;1.48;;;0.80;;
67051;SDS011;53957;47.222;18.670;2022-09-27T22:04:31;0.77;;;0.77;;
67051;SDS011;53957;47.222;18.670;2022-09-27T22:07:33;0.75;;;0.75;;
67051;SDS011;53957;47.222;18.670;2022-09-27T22:10:36;0.70;;;0.70;;
67051;SDS011;53957;47.222;18.670;2022-09-27T22:13:39;0.62;;;0.62;;
67051;SDS011;53957;47.222;18.670;2022-09-27T22:16:42;0.90;;;0.90;;
67051;SDS011;53957;47.222;18.670;2022-09-27T22:19:45;0.90;;;0.90;;
67051;SDS011;53957;47.222;18.670;2022-09-27T22:22:48;0.80;;;0.80;;
67051;SDS011;53957;47.222;18.670;2022-09-27T22:25:50;0.73;;;0.70;;
67051;SDS011;53957;47.222;18.670;2022-09-27T22:28:53;1.08;;;0.90;;
67051;SDS011;53957;47.222;18.670;2022-09-27T22:31:56;0.82;;;0.82;;
67051;SDS011;53957;47.222;18.670;2022-09-27T22:34:59;0.90;;;0.90;;
67051;SDS011;53957;47.222;18.670;2022-09-27T22:38:02;0.77;;;0.77;;
67051;SDS011;53957;47.222;18.670;2022-09-27T22:41:05;0.80;;;0.80;;
67051;SDS011;53957;47.222;18.670;2022-09-27T22:44:08;0.90;;;0.90;;
67051;SDS011;53957;47.222;18.670;2022-09-27T22:47:10;0.90;;;0.90;;
67051;SDS011;53957;47.222;18.670;2022-09-27T22:50:14;0.75;;;0.75;;
67051;SDS011;53957;47.222;18.670;2022-09-27T22:53:17;0.77;;;0.77;;
67051;SDS011;53957;47.222;18.670;2022-09-27T22:56:19;0.70;;;0.70;;
67051;SDS011;53957;47.222;18.670;2022-09-27T22:59:25;1.20;;;0.90;;
67051;SDS011;53957;47.222;18.670;2022-09-27T23:02:28;0.90;;;0.90;;
67051;SDS011;53957;47.222;18.670;2022-09-27T23:05:31;1.00;;;0.90;;
67051;SDS011;53957;47.222;18.670;2022-09-27T23:08:34;0.80;;;0.80;;
67051;SDS011;53957;47.222;18.670;2022-09-27T23:11:38;0.80;;;0.80;;
67051;SDS011;53957;47.222;18.670;2022-09-27T23:14:41;0.90;;;0.90;;
67051;SDS011;53957;47.222;18.670;2022-09-27T23:17:44;0.75;;;0.75;;
67051;SDS011;53957;47.222;18.670;2022-09-27T23:20:51;1.10;;;0.80;;
67051;SDS011;53957;47.222;18.670;2022-09-27T23:23:54;1.65;;;0.80;;
67051;SDS011;53957;47.222;18.670;2022-09-27T23:26:58;0.70;;;0.70;;
67051;SDS011;53957;47.222;18.670;2022-09-27T23:30:20;0.90;;;0.90;;
67051;SDS011;53957;47.222;18.670;2022-09-27T23:33:22;1.10;;;0.80;;
67051;SDS011;53957;47.222;18.670;2022-09-27T23:36:28;0.77;;;0.77;;